createdAt,value
2023-07-23T00:00:38.276Z,7.8
2023-07-23T00:01:40.093Z,7.8
2023-07-23T00:02:42.023Z,7.8
2023-07-23T00:03:43.941Z,7.8
2023-07-23T00:04:45.378Z,7.8
2023-07-23T00:05:47.014Z,7.8
2023-07-23T00:06:48.537Z,7.8
2023-07-23T00:07:50.041Z,7.8
2023-07-23T00:08:51.913Z,7.8
2023-07-23T00:09:53.405Z,7.8
2023-07-23T00:10:54.934Z,7.8
2023-07-23T00:11:56.558Z,7.8
2023-07-23T00:12:58.173Z,7.8
2023-07-23T00:13:59.822Z,7.8
2023-07-23T00:15:01.264Z,7.8
2023-07-23T00:16:03.022Z,7.8
2023-07-23T00:17:04.585Z,7.8
2023-07-23T00:18:06.499Z,7.8
2023-07-23T00:19:08.051Z,7.8
2023-07-23T00:20:09.618Z,7.8
2023-07-23T00:21:11.185Z,7.8
2023-07-23T00:22:12.589Z,7.8
2023-07-23T00:23:13.991Z,7.8
2023-07-23T00:24:15.798Z,7.8
2023-07-23T00:25:17.552Z,7.8
2023-07-23T00:26:19.059Z,7.8
2023-07-23T00:27:20.488Z,7.8
2023-07-23T00:28:21.862Z,7.8
2023-07-23T00:29:23.389Z,7.8
2023-07-23T00:30:24.950Z,7.8
2023-07-23T00:31:28.095Z,7.8
2023-07-23T00:32:30.105Z,7.8
2023-07-23T00:33:31.864Z,7.8
2023-07-23T00:34:33.394Z,7.9
2023-07-23T00:35:34.933Z,7.8
2023-07-23T00:36:36.503Z,7.9
2023-07-23T00:37:37.951Z,7.8
2023-07-23T00:38:39.523Z,7.8
2023-07-23T00:39:41.100Z,7.8
2023-07-23T00:40:42.622Z,7.8
2023-07-23T00:41:44.112Z,7.8
2023-07-23T00:42:45.493Z,7.8
2023-07-23T00:43:46.877Z,7.8
2023-07-23T00:44:48.370Z,7.8
2023-07-23T00:45:50.243Z,7.8
2023-07-23T00:46:51.710Z,7.8
2023-07-23T00:47:53.631Z,7.8
2023-07-23T00:48:55.249Z,7.8
2023-07-23T00:49:56.786Z,7.8
2023-07-23T00:50:58.430Z,7.8
2023-07-23T00:52:00.033Z,7.8
2023-07-23T00:53:01.609Z,7.8
2023-07-23T00:54:03.153Z,7.8
2023-07-23T00:55:04.817Z,7.8
2023-07-23T00:56:06.223Z,7.8
2023-07-23T00:57:07.630Z,7.8
2023-07-23T00:58:10.061Z,7.8
2023-07-23T00:59:11.772Z,7.8
2023-07-23T01:00:13.397Z,7.8
2023-07-23T01:01:15.277Z,7.8
2023-07-23T01:02:16.897Z,7.8
2023-07-23T01:03:18.710Z,7.8
2023-07-23T01:04:20.156Z,7.7
2023-07-23T01:05:21.600Z,7.8
2023-07-23T01:06:23.187Z,7.8
2023-07-23T01:07:24.798Z,7.8
2023-07-23T01:08:26.338Z,7.8
2023-07-23T01:09:27.897Z,7.8
2023-07-23T01:10:29.469Z,7.8
2023-07-23T01:11:31.716Z,7.8
2023-07-23T01:12:33.101Z,7.8
2023-07-23T01:13:34.562Z,7.8
2023-07-23T01:14:36.200Z,7.8
2023-07-23T01:15:37.995Z,7.8
2023-07-23T01:16:39.596Z,7.8
2023-07-23T01:17:41.306Z,7.8
2023-07-23T01:18:42.938Z,7.8
2023-07-23T01:19:44.534Z,7.8
2023-07-23T01:20:46.122Z,7.8
2023-07-23T01:21:47.666Z,7.8
2023-07-23T01:22:49.558Z,7.8
2023-07-23T01:23:51.070Z,7.8
2023-07-23T01:24:53.008Z,7.8
2023-07-23T01:25:54.329Z,7.8
2023-07-23T01:26:55.728Z,7.8
2023-07-23T01:27:57.168Z,7.8
2023-07-23T01:28:58.609Z,7.8
2023-07-23T01:30:00.448Z,7.8
2023-07-23T01:31:16.987Z,7.8
2023-07-23T04:38:57.293Z,7.9
2023-07-23T04:39:58.779Z,7.9
2023-07-23T04:41:00.585Z,7.8
2023-07-23T04:42:02.293Z,7.8
2023-07-23T04:43:03.904Z,7.8
2023-07-23T04:44:05.250Z,7.8
2023-07-23T04:45:06.571Z,7.7
2023-07-23T04:46:08.299Z,7.7
2023-07-23T04:47:09.915Z,7.6
2023-07-23T04:48:11.322Z,7.5
2023-07-23T04:49:12.751Z,7.4
2023-07-23T04:50:14.591Z,7.3
2023-07-23T04:51:15.996Z,7.2
2023-07-23T04:52:17.424Z,7.2
2023-07-23T04:53:18.886Z,7.2
2023-07-23T04:54:20.274Z,7.2
2023-07-23T04:55:21.743Z,7.2
2023-07-23T04:56:23.416Z,7.2
2023-07-23T04:57:25.139Z,7.2
2023-07-23T04:58:26.841Z,7.2
2023-07-23T04:59:28.410Z,7.2
2023-07-23T05:00:29.960Z,7.2
2023-07-23T05:01:33.255Z,7.2
2023-07-23T05:02:34.994Z,7.2
2023-07-23T05:03:36.733Z,7.2
2023-07-23T05:04:38.234Z,7.2
2023-07-23T05:05:39.842Z,7.2
2023-07-23T05:06:41.381Z,7.2
2023-07-23T05:07:42.958Z,7.2
2023-07-23T05:08:44.522Z,7.2
2023-07-23T05:09:45.980Z,7.2
2023-07-23T05:10:47.587Z,7.2
2023-07-23T05:11:49.116Z,7.2
2023-07-23T05:12:50.510Z,7.2
2023-07-23T05:13:51.913Z,7.2
2023-07-23T05:14:53.224Z,7.2
2023-07-23T05:15:54.896Z,7.2
2023-07-23T05:16:56.259Z,7.2
2023-07-23T05:17:58.187Z,7.2
2023-07-23T05:18:59.609Z,7.2
2023-07-23T05:20:01.087Z,7.2
2023-07-23T05:21:02.741Z,7.2
2023-07-23T05:22:04.275Z,7.2
2023-07-23T05:23:05.653Z,7.2
2023-07-23T05:24:06.909Z,7.2
2023-07-23T05:25:08.231Z,7.3
2023-07-23T05:26:09.890Z,7.2
2023-07-23T05:27:11.276Z,7.3
2023-07-23T05:28:12.772Z,7.3
2023-07-23T05:29:14.333Z,7.3
2023-07-23T05:30:15.908Z,7.3
2023-07-23T05:31:17.561Z,7.3
2023-07-23T05:32:19.208Z,7.3
2023-07-23T05:33:20.513Z,7.4
2023-07-23T05:34:22.085Z,7.4
2023-07-23T05:35:23.522Z,7.4
2023-07-23T05:36:25.065Z,7.4
2023-07-23T05:37:26.473Z,7.5
2023-07-23T05:38:28.019Z,7.5
2023-07-23T05:39:29.626Z,7.5
2023-07-23T05:40:31.067Z,7.5
2023-07-23T05:41:33.320Z,7.5
2023-07-23T05:42:34.876Z,7.5
2023-07-23T05:43:36.410Z,7.6
2023-07-23T05:44:37.855Z,7.6
2023-07-23T05:45:39.446Z,7.6
2023-07-23T05:46:41.091Z,7.6
2023-07-23T05:47:42.984Z,7.6
2023-07-23T05:48:44.448Z,7.6
2023-07-23T05:49:45.744Z,7.6
2023-07-23T05:50:47.279Z,7.6
2023-07-23T05:51:48.690Z,7.6
2023-07-23T05:52:50.275Z,7.6
2023-07-23T05:53:51.857Z,7.7
2023-07-23T05:54:53.261Z,7.7
2023-07-23T05:55:54.659Z,7.7
2023-07-23T05:56:56.484Z,7.7
2023-07-23T05:57:58.051Z,7.7
2023-07-23T05:58:59.566Z,7.7
2023-07-23T06:00:01.003Z,7.7
2023-07-23T06:01:02.800Z,7.7
2023-07-23T06:02:04.215Z,7.7
2023-07-23T06:03:06.421Z,7.6
2023-07-23T06:04:08.283Z,7.6
2023-07-23T06:05:09.920Z,7.6
2023-07-23T06:06:11.395Z,7.6
2023-07-23T06:07:12.974Z,7.6
2023-07-23T06:08:14.338Z,7.6
2023-07-23T06:09:15.958Z,7.6
2023-07-23T06:10:17.524Z,7.6
2023-07-23T06:11:19.066Z,7.6
2023-07-23T06:12:20.744Z,7.6
2023-07-23T06:13:22.319Z,7.6
2023-07-23T06:14:24.219Z,7.6
2023-07-23T06:15:26.158Z,7.6
2023-07-23T06:16:27.857Z,7.6
2023-07-23T06:17:29.593Z,7.6
2023-07-23T06:18:31.012Z,7.6
2023-07-23T06:19:32.563Z,7.6
2023-07-23T06:20:34.254Z,7.5
2023-07-23T06:21:35.997Z,7.5
2023-07-23T06:22:37.676Z,7.5
2023-07-23T06:23:39.244Z,7.5
2023-07-23T06:24:41.155Z,7.5
2023-07-23T06:25:42.644Z,7.5
2023-07-23T06:26:44.062Z,7.6
2023-07-23T06:27:45.614Z,7.6
2023-07-23T06:28:47.191Z,7.6
2023-07-23T06:29:48.766Z,7.6
2023-07-23T06:30:50.368Z,7.6
2023-07-23T06:31:51.827Z,7.6
2023-07-23T06:32:53.400Z,7.6
2023-07-23T06:33:55.011Z,7.6
2023-07-23T06:34:56.437Z,7.6
2023-07-23T06:35:58.126Z,7.5
2023-07-23T06:36:59.546Z,7.6
2023-07-23T06:38:01.019Z,7.5
2023-07-23T06:39:02.487Z,7.6
2023-07-23T06:40:04.061Z,7.6
2023-07-23T06:41:05.724Z,7.6
2023-07-23T06:42:07.161Z,7.5
2023-07-23T06:43:08.746Z,7.5
2023-07-23T06:44:10.151Z,7.5
2023-07-23T06:45:11.710Z,7.5
2023-07-23T06:46:13.512Z,7.5
2023-07-23T06:47:15.019Z,7.5
2023-07-23T06:48:16.417Z,7.5
2023-07-23T06:49:17.971Z,7.5
2023-07-23T06:50:19.674Z,7.5
2023-07-23T06:51:20.993Z,7.5
2023-07-23T06:52:22.545Z,7.5
2023-07-23T06:53:24.144Z,7.5
2023-07-23T06:54:25.768Z,7.5
2023-07-23T06:55:27.233Z,7.5
2023-07-23T06:56:28.687Z,7.6
2023-07-23T06:57:30.191Z,7.6
2023-07-23T06:58:31.834Z,7.6
2023-07-23T06:59:33.383Z,7.7
2023-07-23T07:00:34.935Z,7.7
2023-07-23T07:01:36.433Z,7.8
2023-07-23T07:02:39.821Z,7.8
2023-07-23T07:03:41.608Z,7.8
2023-07-23T07:04:43.241Z,7.8
2023-07-23T07:05:44.639Z,7.8
2023-07-23T07:06:46.008Z,7.8
2023-07-23T07:07:47.505Z,7.8
2023-07-23T07:08:48.659Z,7.7
2023-07-23T07:09:50.187Z,7.7
2023-07-23T07:10:52.129Z,7.6
2023-07-23T07:11:53.726Z,7.6
2023-07-23T07:12:55.259Z,7.5
2023-07-23T07:13:56.872Z,7.4
2023-07-23T07:14:58.397Z,7.3
2023-07-23T07:16:00.240Z,7.2
2023-07-23T07:17:06.880Z,7.2
2023-07-23T07:18:08.466Z,7.2
2023-07-23T07:19:09.872Z,7.2
2023-07-23T07:20:11.440Z,7.2
2023-07-23T07:21:12.989Z,7.2
2023-07-23T07:22:14.418Z,7.2
2023-07-23T07:23:15.831Z,7.2
2023-07-23T07:24:17.601Z,7.2
2023-07-23T07:25:18.780Z,7.2
2023-07-23T07:26:20.338Z,7.2
2023-07-23T07:27:21.979Z,7.2
2023-07-23T07:28:23.387Z,7.2
2023-07-23T07:29:24.967Z,7.2
2023-07-23T07:30:26.458Z,7.2
2023-07-23T07:31:30.474Z,7.2
2023-07-23T07:32:32.430Z,7.2
2023-07-23T07:33:33.955Z,7.2
2023-07-23T07:34:35.488Z,7.2
2023-07-23T07:35:36.807Z,7.2
2023-07-23T07:36:38.144Z,7.2
2023-07-23T07:37:39.596Z,7.2
2023-07-23T07:38:41.135Z,7.2
2023-07-23T07:39:42.686Z,7.2
2023-07-23T07:40:44.253Z,7.2
2023-07-23T07:41:45.794Z,7.2
2023-07-23T07:42:47.220Z,7.2
2023-07-23T07:43:48.653Z,7.2
2023-07-23T07:44:50.116Z,7.2
2023-07-23T07:45:52.030Z,7.2
2023-07-23T07:46:53.469Z,7.2
2023-07-23T07:47:55.263Z,7.2
2023-07-23T07:48:56.673Z,7.2
2023-07-23T07:49:58.247Z,7.2
2023-07-23T07:50:59.845Z,7.3
2023-07-23T07:52:01.272Z,7.3
2023-07-23T07:53:02.844Z,7.3
2023-07-23T07:54:04.417Z,7.3
2023-07-23T07:55:05.943Z,7.3
2023-07-23T07:56:07.549Z,7.3
2023-07-23T07:57:08.858Z,7.4
2023-07-23T07:58:10.452Z,7.4
2023-07-23T07:59:12.011Z,7.4
2023-07-23T08:00:13.613Z,7.4
2023-07-23T08:01:15.187Z,7.4
2023-07-23T08:02:16.623Z,7.4
2023-07-23T08:03:19.278Z,7.4
2023-07-23T08:04:21.719Z,7.4
2023-07-23T08:05:24.039Z,7.4
2023-07-23T08:06:25.632Z,7.4
2023-07-23T08:07:27.048Z,7.4
2023-07-23T08:08:28.706Z,7.4
2023-07-23T08:09:30.337Z,7.4
2023-07-23T08:10:35.073Z,7.5
2023-07-23T08:11:36.720Z,7.5
2023-07-23T08:12:38.300Z,7.5
2023-07-23T08:13:39.835Z,7.6
2023-07-23T08:14:41.400Z,7.6
2023-07-23T08:15:42.996Z,7.7
2023-07-23T08:16:44.952Z,7.7
2023-07-23T08:17:46.365Z,7.7
2023-07-23T08:18:47.927Z,7.7
2023-07-23T08:19:49.329Z,7.7
2023-07-23T08:20:50.716Z,7.8
2023-07-23T08:21:52.292Z,7.8
2023-07-23T08:22:53.880Z,7.8
2023-07-23T08:23:55.298Z,7.8
2023-07-23T08:24:56.700Z,7.8
2023-07-23T08:25:58.396Z,7.8
2023-07-23T08:27:00.025Z,7.8
2023-07-23T08:28:01.682Z,7.8
2023-07-23T08:29:03.246Z,7.8
2023-07-23T08:30:04.865Z,7.8
2023-07-23T08:31:06.555Z,7.8
2023-07-23T08:32:08.213Z,7.8
2023-07-23T08:33:10.577Z,7.8
2023-07-23T08:34:12.044Z,7.8
2023-07-23T08:35:13.654Z,7.8
2023-07-23T08:36:15.495Z,7.8
2023-07-23T08:37:16.996Z,7.8
2023-07-23T08:38:18.700Z,7.8
2023-07-23T08:39:20.208Z,7.8
2023-07-23T08:40:21.874Z,7.8
2023-07-23T08:41:23.357Z,7.8
2023-07-23T08:42:24.932Z,7.8
2023-07-23T08:43:26.517Z,7.8
2023-07-23T08:44:28.419Z,7.8
2023-07-23T08:45:30.050Z,7.8
2023-07-23T08:46:31.962Z,7.8
2023-07-23T08:47:33.716Z,7.8
2023-07-23T08:48:35.044Z,7.8
2023-07-23T08:49:36.363Z,7.8
2023-07-23T08:50:37.800Z,7.8
2023-07-23T08:51:39.375Z,7.8
2023-07-23T08:52:40.928Z,7.8
2023-07-23T08:53:42.571Z,7.8
2023-07-23T08:54:44.218Z,7.8
2023-07-23T08:55:45.875Z,7.8
2023-07-23T08:56:47.520Z,7.9
2023-07-23T08:57:49.084Z,7.9
2023-07-23T08:58:50.408Z,7.9
2023-07-23T08:59:51.986Z,7.9
2023-07-23T09:00:53.788Z,7.9
2023-07-23T09:01:55.431Z,7.9
2023-07-23T09:02:57.180Z,7.9
2023-07-23T09:03:58.776Z,7.8
2023-07-23T09:05:00.748Z,7.8
2023-07-23T09:06:02.172Z,7.8
2023-07-23T09:07:03.799Z,7.8
2023-07-23T09:08:05.350Z,7.9
2023-07-23T09:09:06.750Z,7.9
2023-07-23T09:10:08.256Z,7.9
2023-07-23T09:11:09.674Z,7.9
2023-07-23T09:12:11.282Z,7.9
2023-07-23T09:13:12.908Z,7.9
2023-07-23T09:14:14.342Z,7.8
2023-07-23T09:15:15.869Z,7.8
2023-07-23T09:16:17.290Z,7.8
2023-07-23T09:17:18.858Z,7.8
2023-07-23T09:18:20.393Z,7.7
2023-07-23T09:19:22.039Z,7.7
2023-07-23T09:20:23.557Z,7.6
2023-07-23T09:21:25.264Z,7.6
2023-07-23T09:22:26.717Z,7.5
2023-07-23T09:23:28.190Z,7.5
2023-07-23T09:24:29.934Z,7.4
2023-07-23T09:25:31.503Z,7.4
2023-07-23T09:26:33.314Z,7.3
2023-07-23T09:27:35.020Z,7.3
2023-07-23T09:28:36.602Z,7.2
2023-07-23T09:29:38.195Z,7.2
2023-07-23T09:30:39.939Z,7.2
2023-07-23T09:31:41.125Z,7.2
2023-07-23T09:32:43.071Z,7.2
2023-07-23T09:33:44.609Z,7.2
2023-07-23T09:34:46.088Z,7.2
2023-07-23T09:35:47.596Z,7.2
2023-07-23T09:36:49.155Z,7.2
2023-07-23T09:37:50.577Z,7.2
2023-07-23T09:38:51.789Z,7.2
2023-07-23T09:39:53.315Z,7.2
2023-07-23T09:40:54.904Z,7.2
2023-07-23T09:41:56.355Z,7.2
2023-07-23T09:42:58.561Z,7.2
2023-07-23T09:44:00.362Z,7.2
2023-07-23T09:45:02.102Z,7.2
2023-07-23T09:46:03.584Z,7.2
2023-07-23T09:47:05.165Z,7.2
2023-07-23T09:48:19.143Z,7.2
2023-07-23T09:49:20.731Z,7.2
2023-07-23T09:50:22.344Z,7.2
2023-07-23T09:51:23.886Z,7.2
2023-07-23T09:52:25.449Z,7.3
2023-07-23T09:53:27.054Z,7.3
2023-07-23T09:54:28.614Z,7.3
2023-07-23T09:55:30.167Z,7.3
2023-07-23T09:56:31.496Z,7.4
2023-07-23T09:57:33.085Z,7.4
2023-07-23T09:58:34.672Z,7.5
2023-07-23T09:59:36.201Z,7.5
2023-07-23T10:00:37.985Z,7.5
2023-07-23T10:01:39.556Z,7.6
2023-07-23T10:02:41.977Z,7.6
2023-07-23T10:03:43.577Z,7.6
2023-07-23T10:04:45.041Z,7.6
2023-07-23T10:05:46.649Z,7.6
2023-07-23T10:06:48.200Z,7.6
2023-07-23T10:07:49.755Z,7.5
2023-07-23T10:08:51.298Z,7.5
2023-07-23T10:09:52.883Z,7.4
2023-07-23T10:10:54.441Z,7.4
2023-07-23T10:11:55.973Z,7.3
2023-07-23T10:12:57.490Z,7.2
2023-07-23T10:13:59.021Z,7.2
2023-07-23T10:15:00.563Z,7.2
2023-07-23T10:16:02.037Z,7.2
2023-07-23T10:17:03.498Z,7.2
2023-07-23T10:18:05.268Z,7.2
2023-07-23T10:19:06.978Z,7.2
2023-07-23T10:20:12.560Z,7.2
2023-07-23T10:21:14.026Z,7.2
2023-07-23T10:22:15.426Z,7.2
2023-07-23T10:23:16.867Z,7.2
2023-07-23T10:24:18.375Z,7.2
2023-07-23T10:26:44.001Z,7.2
2023-07-23T10:27:45.289Z,7.2
2023-07-23T10:28:46.790Z,7.2
2023-07-23T10:29:48.212Z,7.2
2023-07-23T10:30:50.081Z,7.2
2023-07-23T10:31:51.530Z,7.2
2023-07-23T10:32:53.151Z,7.2
2023-07-23T10:33:54.711Z,7.2
2023-07-23T10:34:56.289Z,7.2
2023-07-23T10:35:57.847Z,7.2
2023-07-23T10:36:59.336Z,7.2
2023-07-23T10:38:00.887Z,7.2
2023-07-23T10:39:02.556Z,7.2
2023-07-23T10:40:04.339Z,7.2
2023-07-23T10:41:06.007Z,7.2
2023-07-23T10:42:07.557Z,7.2
2023-07-23T10:43:09.378Z,7.3
2023-07-23T10:44:10.792Z,7.2
2023-07-23T10:45:12.353Z,7.2
2023-07-23T10:46:14.211Z,7.2
2023-07-23T10:47:15.855Z,7.2
2023-07-23T10:48:17.293Z,7.3
2023-07-23T10:49:18.849Z,7.3
2023-07-23T10:50:20.494Z,7.3
2023-07-23T10:51:22.101Z,7.3
2023-07-23T10:52:23.700Z,7.3
2023-07-23T10:53:25.272Z,7.3
2023-07-23T10:54:26.733Z,7.3
2023-07-23T10:55:28.185Z,7.3
2023-07-23T10:56:29.652Z,7.4
2023-07-23T10:57:31.094Z,7.4
2023-07-23T10:58:32.582Z,7.4
2023-07-23T10:59:34.205Z,7.4
2023-07-23T11:00:35.759Z,7.4
2023-07-23T11:01:37.617Z,7.4
2023-07-23T11:02:39.706Z,7.5
2023-07-23T11:03:41.835Z,7.5
2023-07-23T11:04:43.282Z,7.5
2023-07-23T11:05:44.853Z,7.5
2023-07-23T11:06:46.238Z,7.5
2023-07-23T11:07:47.754Z,7.5
2023-07-23T11:08:49.175Z,7.5
2023-07-23T11:09:50.586Z,7.5
2023-07-23T11:10:52.220Z,7.5
2023-07-23T11:11:54.080Z,7.5
2023-07-23T11:12:55.615Z,7.5
2023-07-23T11:13:57.078Z,7.5
2023-07-23T11:14:58.510Z,7.5
2023-07-23T11:16:00.463Z,7.6
2023-07-23T11:17:01.978Z,7.6
2023-07-23T11:18:08.279Z,7.6
2023-07-23T11:19:09.905Z,7.6
2023-07-23T11:20:11.441Z,7.6
2023-07-23T11:21:13.040Z,7.7
2023-07-23T11:22:14.440Z,7.7
2023-07-23T11:23:16.591Z,7.7
2023-07-23T11:24:18.500Z,7.7
2023-07-23T11:25:19.928Z,7.8
2023-07-23T11:26:21.308Z,7.8
2023-07-23T11:27:22.899Z,7.9
2023-07-23T11:28:24.209Z,7.9
2023-07-23T11:29:25.772Z,7.9
2023-07-23T11:30:27.372Z,7.9
2023-07-23T11:31:30.896Z,7.9
2023-07-23T11:32:32.866Z,7.9
2023-07-23T11:33:34.297Z,7.9
2023-07-23T11:34:35.904Z,7.9
2023-07-23T11:35:37.320Z,7.9
2023-07-23T11:36:39.289Z,7.9
2023-07-23T11:37:41.177Z,7.9
2023-07-23T11:38:42.711Z,7.8
2023-07-23T11:39:44.213Z,7.8
2023-07-23T11:40:45.583Z,7.8
2023-07-23T11:41:48.159Z,7.8
2023-07-23T11:42:49.781Z,7.8
2023-07-23T11:43:51.251Z,7.8
2023-07-23T11:44:52.744Z,7.8
2023-07-23T11:45:54.576Z,7.8
2023-07-23T11:46:56.087Z,7.7
2023-07-23T11:47:57.697Z,7.7
2023-07-23T11:48:59.147Z,7.6
2023-07-23T11:50:00.694Z,7.6
2023-07-23T11:51:02.293Z,7.5
2023-07-23T11:52:03.888Z,7.4
2023-07-23T11:53:05.492Z,7.3
2023-07-23T11:54:06.935Z,7.2
2023-07-23T11:55:08.370Z,7.2
2023-07-23T11:56:09.919Z,7.2
2023-07-23T11:57:11.466Z,7.2
2023-07-23T11:58:13.063Z,7.2
2023-07-23T12:02:24.961Z,7.2
2023-07-23T12:03:26.821Z,7.2
2023-07-23T12:04:28.483Z,7.2
2023-07-23T12:05:29.967Z,7.2
2023-07-23T12:06:31.526Z,7.2
2023-07-23T12:07:33.167Z,7.2
2023-07-23T12:08:34.790Z,7.2
2023-07-23T12:09:36.272Z,7.2
2023-07-23T12:10:37.852Z,7.2
2023-07-23T12:14:46.577Z,7.2
2023-07-23T12:15:48.208Z,7.2
2023-07-23T12:17:51.936Z,7.2
2023-07-23T12:18:53.355Z,7.2
2023-07-23T12:19:54.752Z,7.3
2023-07-23T12:20:56.278Z,7.3
2023-07-23T12:21:57.701Z,7.3
2023-07-23T12:22:59.343Z,7.3
2023-07-23T12:24:00.901Z,7.3
2023-07-23T12:25:02.558Z,7.3
2023-07-23T12:26:03.960Z,7.3
2023-07-23T12:27:05.549Z,7.3
2023-07-23T12:28:06.975Z,7.3
2023-07-23T12:29:08.509Z,7.3
2023-07-23T12:30:10.064Z,7.3
2023-07-23T12:31:11.858Z,7.3
2023-07-23T12:32:13.767Z,7.3
2023-07-23T12:33:15.350Z,7.2
2023-07-23T12:34:17.014Z,7.2
2023-07-23T12:35:18.553Z,7.2
2023-07-23T12:36:20.153Z,7.2
2023-07-23T12:37:21.581Z,7.2
2023-07-23T12:38:23.308Z,7.3
2023-07-23T12:39:24.805Z,7.3
2023-07-23T12:40:26.430Z,7.3
2023-07-23T12:41:28.040Z,7.3
2023-07-23T12:42:29.640Z,7.3
2023-07-23T12:43:31.248Z,7.3
2023-07-23T12:44:32.920Z,7.3
2023-07-23T12:45:34.740Z,7.4
2023-07-23T12:46:36.337Z,7.4
2023-07-23T12:47:38.068Z,7.3
2023-07-23T12:48:39.565Z,7.4
2023-07-23T12:49:41.230Z,7.4
2023-07-23T12:50:42.862Z,7.4
2023-07-23T13:06:18.750Z,7.7
2023-07-23T13:07:20.345Z,7.7
2023-07-23T13:08:21.923Z,7.7
2023-07-23T13:09:23.437Z,7.7
2023-07-23T13:10:25.022Z,7.7
2023-07-23T13:11:26.458Z,7.8
2023-07-23T13:12:28.019Z,7.8
2023-07-23T13:13:29.600Z,7.8
2023-07-23T13:14:31.288Z,7.8
2023-07-23T13:15:32.752Z,7.8
2023-07-23T13:16:35.038Z,7.8
2023-07-23T13:17:36.820Z,7.8
2023-07-23T13:18:38.294Z,7.8
2023-07-23T13:19:39.935Z,7.8
2023-07-23T13:20:41.421Z,7.8
2023-07-23T13:21:43.130Z,7.8
2023-07-23T13:22:44.854Z,7.8
2023-07-23T13:23:46.504Z,7.8
2023-07-23T13:24:48.400Z,7.8
2023-07-23T13:25:50.030Z,7.8
2023-07-23T13:26:51.479Z,7.8
2023-07-23T13:27:53.037Z,7.8
2023-07-23T13:28:54.414Z,7.8
2023-07-23T13:29:56.013Z,7.8
2023-07-23T13:30:57.784Z,7.8
2023-07-23T13:31:59.582Z,7.8
2023-07-23T13:33:01.580Z,7.8
2023-07-23T13:34:03.320Z,7.9
2023-07-23T13:35:04.952Z,7.9
2023-07-23T13:36:06.454Z,7.9
2023-07-23T13:37:08.021Z,7.9
2023-07-23T13:38:09.673Z,7.9
2023-07-23T13:39:11.094Z,7.9
2023-07-23T13:40:12.896Z,7.9
2023-07-23T13:41:14.539Z,7.8
2023-07-23T13:42:16.129Z,7.8
2023-07-23T13:43:17.812Z,7.8
2023-07-23T13:44:19.384Z,7.8
2023-07-23T13:45:20.981Z,7.8
2023-07-23T13:46:22.899Z,7.7
2023-07-23T13:47:24.676Z,7.7
2023-07-23T13:48:26.115Z,7.7
2023-07-23T13:49:27.722Z,7.6
2023-07-23T14:21:39.877Z,7.3
2023-07-23T14:22:41.276Z,7.3
2023-07-23T14:23:42.941Z,7.3
2023-07-23T14:24:44.894Z,7.3
2023-07-23T14:25:46.534Z,7.3
2023-07-23T14:26:48.163Z,7.3
2023-07-23T14:27:49.775Z,7.3
2023-07-23T14:28:51.332Z,7.3
2023-07-23T14:29:52.961Z,7.3
2023-07-23T14:30:55.628Z,7.3
2023-07-23T14:31:57.240Z,7.4
2023-07-23T14:32:59.153Z,7.4
2023-07-23T14:34:00.893Z,7.4
2023-07-23T14:35:02.513Z,7.5
2023-07-23T14:36:04.150Z,7.5
2023-07-23T14:37:05.721Z,7.5
2023-07-23T14:38:07.120Z,7.6
2023-07-23T14:39:08.560Z,7.6
2023-07-23T14:40:10.005Z,7.6
2023-07-23T14:41:11.466Z,7.7
2023-07-23T14:42:13.112Z,7.7
2023-07-23T14:43:14.636Z,7.8
2023-07-23T14:44:16.693Z,7.8
2023-07-23T14:45:18.321Z,7.8
2023-07-23T14:46:19.859Z,7.8
2023-07-23T14:47:21.301Z,7.8
2023-07-23T14:48:22.770Z,7.8
2023-07-23T14:49:24.489Z,7.8
2023-07-23T14:50:26.317Z,7.8
2023-07-23T14:51:29.270Z,7.8
2023-07-23T14:52:31.298Z,7.8
2023-07-23T14:53:32.900Z,7.8
2023-07-23T14:54:34.400Z,7.8
2023-07-23T14:55:35.853Z,7.8
2023-07-23T14:56:37.316Z,7.8
2023-07-23T14:57:38.701Z,7.8
2023-07-23T14:58:40.301Z,7.7
2023-07-23T14:59:41.908Z,7.7
2023-07-23T15:00:43.470Z,7.7
2023-07-23T15:01:45.159Z,7.7
2023-07-23T15:02:47.451Z,7.7
2023-07-23T15:03:49.705Z,7.7
2023-07-23T15:04:51.356Z,7.7
2023-07-23T15:05:52.790Z,7.7
2023-07-23T15:06:54.372Z,7.7
2023-07-23T15:07:56.233Z,7.7
2023-07-23T15:08:57.817Z,7.7
2023-07-23T15:09:59.463Z,7.7
2023-07-23T15:11:01.043Z,7.7
2023-07-23T15:12:02.641Z,7.7
2023-07-23T15:13:04.257Z,7.7
2023-07-23T15:14:05.848Z,7.8
2023-07-23T15:15:07.234Z,7.8
2023-07-23T15:16:09.137Z,7.8
2023-07-23T15:17:10.775Z,7.8
2023-07-23T15:18:12.366Z,7.8
2023-07-23T15:19:13.955Z,7.8
2023-07-23T15:20:15.270Z,7.8
2023-07-23T15:21:16.789Z,7.8
2023-07-23T15:22:18.188Z,7.8
2023-07-23T15:23:19.829Z,7.8
2023-07-23T15:24:21.653Z,7.8
2023-07-23T15:25:23.242Z,7.8
2023-07-23T15:26:24.711Z,7.9
2023-07-23T15:27:26.351Z,7.8
2023-07-23T15:28:28.119Z,7.8
2023-07-23T15:29:29.566Z,7.8
2023-07-23T15:30:31.137Z,7.8
2023-07-23T15:31:34.624Z,7.8
2023-07-23T15:32:36.630Z,7.9
2023-07-23T15:33:38.178Z,7.9
2023-07-23T15:34:39.774Z,7.9
2023-07-23T15:35:41.337Z,7.9
2023-07-23T15:36:42.853Z,7.9
2023-07-23T15:37:44.449Z,7.8
2023-07-23T15:38:45.899Z,7.8
2023-07-23T15:39:47.470Z,7.8
2023-07-23T15:40:48.945Z,7.8
2023-07-23T15:41:50.497Z,7.8
2023-07-23T15:42:52.069Z,7.9
2023-07-23T15:43:53.615Z,7.9
2023-07-23T15:44:55.159Z,7.8
2023-07-23T15:45:56.790Z,7.8
2023-07-23T15:46:58.428Z,7.8
2023-07-23T15:48:00.238Z,7.8
2023-07-23T15:49:01.778Z,7.8
2023-07-23T15:50:03.417Z,7.8
2023-07-23T15:51:05.113Z,7.7
2023-07-23T15:52:06.678Z,7.7
2023-07-23T15:53:08.301Z,7.6
2023-07-23T15:54:09.948Z,7.6
2023-07-23T15:55:11.488Z,7.5
2023-07-23T15:56:12.994Z,7.4
2023-07-23T15:57:14.574Z,7.3
2023-07-23T15:58:16.156Z,7.2
2023-07-23T15:59:17.718Z,7.2
2023-07-23T16:00:19.276Z,7.2
2023-07-23T16:01:21.065Z,7.2
2023-07-23T16:02:23.268Z,7.2
2023-07-23T16:03:25.788Z,7.2
2023-07-23T16:04:27.413Z,7.2
2023-07-23T16:05:29.030Z,7.2
2023-07-23T16:06:30.594Z,7.2
2023-07-23T16:07:32.159Z,7.2
2023-07-23T16:08:33.579Z,7.2
2023-07-23T16:09:35.123Z,7.2
2023-07-23T16:10:36.722Z,7.2
2023-07-23T16:11:38.324Z,7.2
2023-07-23T16:12:39.792Z,7.2
2023-07-23T16:13:41.346Z,7.2
2023-07-23T16:14:42.917Z,7.2
2023-07-23T16:15:45.041Z,7.2
2023-07-23T16:16:46.471Z,7.2
2023-07-23T16:17:48.357Z,7.2
2023-07-23T16:18:49.957Z,7.2
2023-07-23T16:19:51.480Z,7.2
2023-07-23T16:20:53.030Z,7.2
2023-07-23T16:21:54.303Z,7.2
2023-07-23T16:22:55.843Z,7.2
2023-07-23T16:23:57.305Z,7.2
2023-07-23T16:24:58.911Z,7.2
2023-07-23T16:26:00.396Z,7.2
2023-07-23T16:27:01.961Z,7.2
2023-07-23T16:28:03.498Z,7.2
2023-07-23T16:29:05.014Z,7.2
2023-07-23T16:30:06.684Z,7.2
2023-07-23T16:31:08.205Z,7.2
2023-07-23T16:32:09.793Z,7.2
2023-07-23T16:33:11.256Z,7.2
2023-07-23T16:34:12.830Z,7.2
2023-07-23T16:35:14.407Z,7.2
2023-07-23T16:36:15.676Z,7.2
2023-07-23T16:37:17.084Z,7.3
2023-07-23T16:38:18.662Z,7.3
2023-07-23T16:39:20.240Z,7.3
2023-07-23T16:40:21.696Z,7.3
2023-07-23T16:41:23.288Z,7.3
2023-07-23T16:42:24.854Z,7.3
2023-07-23T16:43:26.442Z,7.3
2023-07-23T16:44:27.973Z,7.3
2023-07-23T16:45:30.043Z,7.4
2023-07-23T16:46:31.832Z,7.4
2023-07-23T16:47:33.899Z,7.4
2023-07-23T16:48:35.341Z,7.4
2023-07-23T16:49:36.907Z,7.4
2023-07-23T16:50:38.413Z,7.4
2023-07-23T16:51:40.000Z,7.4
2023-07-23T16:52:41.653Z,7.4
2023-07-23T16:53:43.191Z,7.5
2023-07-23T16:54:44.694Z,7.5
2023-07-23T16:55:46.230Z,7.5
2023-07-23T16:56:47.778Z,7.6
2023-07-23T16:57:49.280Z,7.6
2023-07-23T16:58:50.998Z,7.6
2023-07-23T16:59:52.262Z,7.7
2023-07-23T17:00:53.940Z,7.7
2023-07-23T17:01:55.458Z,7.7
2023-07-23T17:02:57.440Z,7.8
2023-07-23T17:03:59.033Z,7.8
2023-07-23T17:05:00.603Z,7.7
2023-07-23T17:06:02.502Z,7.8
2023-07-23T17:07:04.140Z,7.8
2023-07-23T17:08:05.686Z,7.8
2023-07-23T17:09:07.236Z,7.8
2023-07-23T17:10:08.836Z,7.8
2023-07-23T17:11:10.125Z,7.8
2023-07-23T17:12:11.667Z,7.8
2023-07-23T17:13:13.268Z,7.8
2023-07-23T17:14:14.839Z,7.8
2023-07-23T17:15:16.435Z,7.8
2023-07-23T17:16:18.334Z,7.8
2023-07-23T17:17:20.242Z,7.8
2023-07-23T17:18:21.831Z,7.8
2023-07-23T17:19:23.097Z,7.8
2023-07-23T17:20:24.684Z,7.8
2023-07-23T17:21:26.258Z,7.8
2023-07-23T17:22:27.833Z,7.8
2023-07-23T17:23:29.294Z,7.8
2023-07-23T17:24:31.006Z,7.8
2023-07-23T17:25:32.744Z,7.8
2023-07-23T17:26:34.609Z,7.8
2023-07-23T17:27:36.208Z,7.8
2023-07-23T17:28:37.789Z,7.8
2023-07-23T17:29:39.190Z,7.8
2023-07-23T17:30:41.214Z,7.8
2023-07-23T17:31:42.610Z,7.8
2023-07-23T17:32:44.158Z,7.8
2023-07-23T17:33:45.812Z,7.8
2023-07-23T17:34:47.273Z,7.8
2023-07-23T17:35:48.787Z,7.8
2023-07-23T17:36:50.230Z,7.8
2023-07-23T17:37:51.856Z,7.8
2023-07-23T17:38:53.289Z,7.8
2023-07-23T17:39:54.979Z,7.8
2023-07-23T17:40:56.576Z,7.8
2023-07-23T17:41:58.166Z,7.8
2023-07-23T17:42:59.678Z,7.8
2023-07-23T17:44:01.232Z,7.8
2023-07-23T17:45:02.768Z,7.8
2023-07-23T17:46:04.536Z,7.8
2023-07-23T17:47:06.341Z,7.8
2023-07-23T17:48:07.820Z,7.8
2023-07-23T17:49:09.232Z,7.8
2023-07-23T17:50:10.556Z,7.8
2023-07-23T17:51:12.055Z,7.8
2023-07-23T17:52:13.594Z,7.8
2023-07-23T17:53:15.055Z,7.8
2023-07-23T17:54:16.602Z,7.8
2023-07-23T17:55:18.396Z,7.8
2023-07-23T17:56:19.974Z,7.8
2023-07-23T17:57:21.664Z,7.9
2023-07-23T17:58:23.236Z,7.9
2023-07-23T17:59:24.811Z,7.9
2023-07-23T18:00:26.385Z,7.9
2023-07-23T18:01:33.695Z,7.9
2023-07-23T18:02:35.632Z,7.8
2023-07-23T18:03:37.196Z,7.8
2023-07-23T18:04:38.984Z,7.8
2023-07-23T18:05:40.734Z,7.8
2023-07-23T18:06:42.156Z,7.8
2023-07-23T18:07:43.622Z,7.8
2023-07-23T18:08:45.036Z,7.7
2023-07-23T18:09:46.561Z,7.7
2023-07-23T18:10:48.025Z,7.7